KISP/ISP METAR and TAF weather

Enter ICAO airport designator
Station Type Date Time Source
KISP METAR 2019/02/21 15:56 UTC NOAA

KISP 211556Z 28015KT 10SM FEW010 BKN250 08/03 A2992 RMK AO2 SLP132 T00780028


Station Type Date Time Source
KISP Decoded METAR 2019/02/21 15:56 UTC NOAA

ISLIP LONG ISLAND MAC ART, NY, United States (KISP) 40-48N 073-06W 43M
Feb 21, 2019 - 10:56 AM EST / 2019.02.21 1556 UTC
Wind: from the W (280 degrees) at 17 MPH (15 KT):0
Visibility: 10 mile(s):0
Sky conditions: mostly cloudy
Temperature: 46.0 F (7.8 C)
Dew Point: 37.0 F (2.8 C)
Relative Humidity: 70%
Pressure (altimeter): 29.92 in. Hg (1013 hPa)
ob: KISP 211556Z 28015KT 10SM FEW010 BKN250 08/03 A2992 RMK AO2 SLP132 T00780028
cycle: 16

Station Type Date Time Source
KISP TAF 2019/02/21 15:57 UTC NOAA

TAF
AMD KISP 211454Z 2115/2212 28010KT P6SM SCT025 SCT250
TEMPO 2115/2116 5SM BR BKN005
FM211600 28012G20KT P6SM SCT025 SCT250
FM212300 29008KT P6SM SCT250
FM220700 31007KT P6SM SCT250


Example: see airport list